TVF12GT LEIB-LFPO
Flight info
| Callsign | TVF12GT |
|---|---|
| Flight time | 1h 34m |
| Altitude | 38000 |
| Route | EPAMA N856 EBROX DCT LATRO DCT OLOXO DCT OKABI DCT TOU DCT DIBAG DCT TUDRA/N0440F280 DCT BEVOL UT158 AMB |
| Aircraft | A20N/M-SDE2E3FGHIJ1RWXY/LB1 |
Departure
| Time | 2026-04-30 12:34 |
|---|---|
| Airport | Ibiza Airport (LEIB) |
Arrival
| Time | 2026-04-30 14:08 |
|---|---|
| Airport | Paris-Orly Airport (LFPO) |
| Time | Latitude | Longitude | Altitude | Speed | Heading |
|---|---|---|---|---|---|
| 2026-04-30 12:03 | 38.87625 | 1.37060 | 28 ft | 0 kts | 332° |
| 2026-04-30 12:22 | 38.87619 | 1.37064 | 28 ft | 2 kts | 332° |
| 2026-04-30 12:22 | 38.87606 | 1.37073 | 28 ft | 2 kts | 332° |
| 2026-04-30 12:22 | 38.87593 | 1.37082 | 28 ft | 2 kts | 332° |
| 2026-04-30 12:23 | 38.87580 | 1.37092 | 28 ft | 2 kts | 345° |
| 2026-04-30 12:23 | 38.87565 | 1.37091 | 28 ft | 2 kts | 27° |
| 2026-04-30 12:23 | 38.87556 | 1.37081 | 28 ft | 0 kts | 58° |
| 2026-04-30 12:23 | 38.87553 | 1.37073 | 28 ft | 1 kts | 63° |
| 2026-04-30 12:24 | 38.87552 | 1.37071 | 28 ft | 0 kts | 63° |
| 2026-04-30 12:27 | 38.87553 | 1.37074 | 28 ft | 1 kts | 63° |
| 2026-04-30 12:27 | 38.87564 | 1.37102 | 28 ft | 5 kts | 63° |
| 2026-04-30 12:27 | 38.87590 | 1.37163 | 28 ft | 9 kts | 62° |
| 2026-04-30 12:27 | 38.87624 | 1.37242 | 28 ft | 10 kts | 62° |
| 2026-04-30 12:28 | 38.87661 | 1.37330 | 28 ft | 11 kts | 62° |
| 2026-04-30 12:28 | 38.87695 | 1.37415 | 28 ft | 7 kts | 66° |
| 2026-04-30 12:28 | 38.87688 | 1.37484 | 28 ft | 8 kts | 137° |
| 2026-04-30 12:28 | 38.87628 | 1.37524 | 28 ft | 10 kts | 155° |
| 2026-04-30 12:29 | 38.87586 | 1.37588 | 28 ft | 10 kts | 73° |
| 2026-04-30 12:29 | 38.87623 | 1.37678 | 28 ft | 11 kts | 62° |
| 2026-04-30 12:29 | 38.87663 | 1.37776 | 28 ft | 12 kts | 63° |
| 2026-04-30 12:29 | 38.87707 | 1.37882 | 28 ft | 13 kts | 62° |
| 2026-04-30 12:30 | 38.87753 | 1.37993 | 28 ft | 14 kts | 62° |
| 2026-04-30 12:30 | 38.87800 | 1.38107 | 28 ft | 12 kts | 63° |
| 2026-04-30 12:30 | 38.87815 | 1.38171 | 28 ft | 7 kts | 108° |
| 2026-04-30 12:30 | 38.87786 | 1.38201 | 28 ft | 4 kts | 153° |
| 2026-04-30 12:31 | 38.87767 | 1.38213 | 28 ft | 0 kts | 153° |
| 2026-04-30 12:31 | 38.87763 | 1.38216 | 28 ft | 1 kts | 153° |
| 2026-04-30 12:31 | 38.87748 | 1.38226 | 28 ft | 3 kts | 153° |
| 2026-04-30 12:31 | 38.87719 | 1.38245 | 28 ft | 5 kts | 153° |
| 2026-04-30 12:32 | 38.87688 | 1.38265 | 28 ft | 3 kts | 167° |
| 2026-04-30 12:32 | 38.87670 | 1.38245 | 28 ft | 1 kts | 241° |
| 2026-04-30 12:32 | 38.87669 | 1.38244 | 28 ft | 0 kts | 241° |
| 2026-04-30 12:33 | 38.87664 | 1.38232 | 28 ft | 7 kts | 241° |
| 2026-04-30 12:33 | 38.87506 | 1.37846 | 29 ft | 88 kts | 242° |
| 2026-04-30 12:33 | 38.87107 | 1.36878 | 30 ft | 154 kts | 243° |
| 2026-04-30 12:33 | 38.86573 | 1.35573 | 509 ft | 167 kts | 242° |
| 2026-04-30 12:34 | 38.86041 | 1.34255 | 1240 ft | 167 kts | 244° |
| 2026-04-30 12:34 | 38.85532 | 1.32938 | 1916 ft | 170 kts | 245° |
| 2026-04-30 12:34 | 38.84989 | 1.31519 | 2361 ft | 184 kts | 245° |
| 2026-04-30 12:34 | 38.84401 | 1.29992 | 2787 ft | 201 kts | 245° |
| 2026-04-30 12:35 | 38.83742 | 1.28308 | 3235 ft | 218 kts | 244° |
| 2026-04-30 12:35 | 38.83262 | 1.26452 | 3763 ft | 227 kts | 269° |
| 2026-04-30 12:35 | 38.83655 | 1.24481 | 4450 ft | 233 kts | 303° |
| 2026-04-30 12:35 | 38.84812 | 1.23022 | 5110 ft | 241 kts | 325° |
| 2026-04-30 12:36 | 38.86204 | 1.21811 | 5836 ft | 245 kts | 324° |
| 2026-04-30 12:36 | 38.87600 | 1.20559 | 6618 ft | 251 kts | 322° |
| 2026-04-30 12:36 | 38.89026 | 1.19253 | 7462 ft | 255 kts | 321° |
| 2026-04-30 12:36 | 38.90448 | 1.17940 | 8287 ft | 257 kts | 321° |
| 2026-04-30 12:37 | 38.91918 | 1.16615 | 9174 ft | 261 kts | 326° |
| 2026-04-30 12:37 | 38.93675 | 1.15951 | 9944 ft | 275 kts | 356° |
| 2026-04-30 12:37 | 38.95569 | 1.16396 | 10726 ft | 282 kts | 12° |
| 2026-04-30 12:37 | 38.97497 | 1.17073 | 11353 ft | 294 kts | 12° |
| 2026-04-30 12:38 | 38.99533 | 1.17769 | 11786 ft | 312 kts | 12° |
| 2026-04-30 12:38 | 39.01674 | 1.18490 | 12191 ft | 330 kts | 12° |
| 2026-04-30 12:38 | 39.03942 | 1.19249 | 12585 ft | 348 kts | 12° |
| 2026-04-30 12:38 | 39.06365 | 1.20056 | 12913 ft | 366 kts | 12° |
| 2026-04-30 12:39 | 39.08882 | 1.20893 | 13289 ft | 381 kts | 12° |
| 2026-04-30 12:39 | 39.11462 | 1.21751 | 13927 ft | 387 kts | 12° |
| 2026-04-30 12:39 | 39.14079 | 1.22625 | 14657 ft | 390 kts | 12° |
| 2026-04-30 12:39 | 39.16700 | 1.23500 | 15349 ft | 394 kts | 12° |
| 2026-04-30 12:40 | 39.19374 | 1.24390 | 16025 ft | 398 kts | 12° |
| 2026-04-30 12:40 | 39.22058 | 1.25283 | 16684 ft | 401 kts | 12° |
| 2026-04-30 12:40 | 39.24799 | 1.26195 | 17340 ft | 405 kts | 11° |
| 2026-04-30 12:40 | 39.27522 | 1.27101 | 17955 ft | 408 kts | 11° |
| 2026-04-30 12:41 | 39.30277 | 1.28018 | 18556 ft | 412 kts | 11° |
| 2026-04-30 12:41 | 39.33057 | 1.28944 | 19134 ft | 416 kts | 11° |
| 2026-04-30 12:41 | 39.35858 | 1.29879 | 19690 ft | 421 kts | 11° |
| 2026-04-30 12:41 | 39.38697 | 1.30825 | 20241 ft | 425 kts | 11° |
| 2026-04-30 12:42 | 39.41577 | 1.31787 | 20793 ft | 428 kts | 11° |
| 2026-04-30 12:42 | 39.44458 | 1.32750 | 21334 ft | 432 kts | 11° |
| 2026-04-30 12:42 | 39.47381 | 1.33728 | 21857 ft | 436 kts | 11° |
| 2026-04-30 12:42 | 39.50325 | 1.34712 | 22375 ft | 439 kts | 11° |
| 2026-04-30 12:43 | 39.53272 | 1.35700 | 22870 ft | 442 kts | 10° |
| 2026-04-30 12:43 | 39.56259 | 1.36698 | 23358 ft | 445 kts | 9° |
| 2026-04-30 12:43 | 39.59291 | 1.37423 | 23837 ft | 445 kts | 2° |
| 2026-04-30 12:43 | 39.62384 | 1.37672 | 24310 ft | 443 kts | 355° |
| 2026-04-30 12:44 | 39.65454 | 1.37463 | 24768 ft | 443 kts | 350° |
| 2026-04-30 12:44 | 39.68503 | 1.37075 | 25216 ft | 445 kts | 349° |
| 2026-04-30 12:44 | 39.71604 | 1.36644 | 25659 ft | 448 kts | 349° |
| 2026-04-30 12:44 | 39.74726 | 1.36209 | 26088 ft | 450 kts | 349° |
| 2026-04-30 12:45 | 39.77840 | 1.35779 | 26485 ft | 453 kts | 349° |
| 2026-04-30 12:45 | 39.80980 | 1.35352 | 26865 ft | 455 kts | 349° |
| 2026-04-30 12:45 | 39.84134 | 1.34928 | 27242 ft | 458 kts | 349° |
| 2026-04-30 12:45 | 39.87310 | 1.34503 | 27600 ft | 460 kts | 349° |
| 2026-04-30 12:46 | 39.90467 | 1.34081 | 27950 ft | 462 kts | 349° |
| 2026-04-30 12:46 | 39.93691 | 1.33650 | 28289 ft | 464 kts | 349° |
| 2026-04-30 12:46 | 39.96883 | 1.33222 | 28615 ft | 466 kts | 349° |
| 2026-04-30 12:46 | 40.00115 | 1.32791 | 29056 ft | 465 kts | 349° |
| 2026-04-30 12:47 | 40.03296 | 1.32367 | 29516 ft | 463 kts | 348° |
| 2026-04-30 12:47 | 40.06498 | 1.31939 | 29962 ft | 461 kts | 348° |
| 2026-04-30 12:47 | 40.09687 | 1.31511 | 30372 ft | 461 kts | 348° |
| 2026-04-30 12:47 | 40.12870 | 1.31083 | 30797 ft | 459 kts | 348° |
| 2026-04-30 12:48 | 40.16040 | 1.30656 | 31206 ft | 458 kts | 348° |
| 2026-04-30 12:48 | 40.19196 | 1.30229 | 31595 ft | 457 kts | 348° |
| 2026-04-30 12:48 | 40.22363 | 1.29802 | 32011 ft | 455 kts | 348° |
| 2026-04-30 12:48 | 40.25517 | 1.29375 | 32402 ft | 453 kts | 348° |
| 2026-04-30 12:49 | 40.28689 | 1.28944 | 32773 ft | 452 kts | 348° |
| 2026-04-30 12:49 | 40.31780 | 1.28524 | 33108 ft | 451 kts | 348° |
| 2026-04-30 12:49 | 40.34894 | 1.28103 | 33426 ft | 451 kts | 348° |
| 2026-04-30 12:49 | 40.38045 | 1.27678 | 33736 ft | 450 kts | 348° |
| 2026-04-30 12:50 | 40.41172 | 1.27257 | 34035 ft | 450 kts | 348° |
| 2026-04-30 12:50 | 40.44257 | 1.26840 | 34369 ft | 449 kts | 348° |
| 2026-04-30 12:50 | 40.47348 | 1.26421 | 34712 ft | 448 kts | 348° |
| 2026-04-30 12:50 | 40.50461 | 1.25997 | 35057 ft | 446 kts | 348° |
| 2026-04-30 12:51 | 40.53541 | 1.25576 | 35380 ft | 445 kts | 348° |
| 2026-04-30 12:51 | 40.56604 | 1.25158 | 35685 ft | 444 kts | 348° |
| 2026-04-30 12:51 | 40.59657 | 1.24741 | 35977 ft | 442 kts | 348° |
| 2026-04-30 12:51 | 40.62744 | 1.24354 | 36242 ft | 443 kts | 349° |
| 2026-04-30 12:52 | 40.65852 | 1.24172 | 36456 ft | 446 kts | 353° |
| 2026-04-30 12:52 | 40.68943 | 1.24231 | 36632 ft | 450 kts | 356° |
| 2026-04-30 12:52 | 40.72085 | 1.24538 | 36809 ft | 453 kts | 0° |
| 2026-04-30 12:52 | 40.75203 | 1.25095 | 36964 ft | 456 kts | 3° |
| 2026-04-30 12:53 | 40.78313 | 1.25904 | 37110 ft | 460 kts | 7° |
| 2026-04-30 12:53 | 40.81452 | 1.26953 | 37253 ft | 462 kts | 9° |
| 2026-04-30 12:53 | 40.84564 | 1.28069 | 37392 ft | 464 kts | 9° |
| 2026-04-30 12:53 | 40.87656 | 1.29194 | 37516 ft | 464 kts | 9° |
| 2026-04-30 12:54 | 40.90751 | 1.30320 | 37632 ft | 465 kts | 9° |
| 2026-04-30 12:54 | 40.93881 | 1.31456 | 37759 ft | 465 kts | 9° |
| 2026-04-30 12:54 | 40.96977 | 1.32577 | 37898 ft | 465 kts | 9° |
| 2026-04-30 12:54 | 41.00110 | 1.33710 | 38035 ft | 465 kts | 9° |
| 2026-04-30 12:55 | 41.06364 | 1.35971 | 38043 ft | 465 kts | 9° |
| 2026-04-30 12:55 | 41.12602 | 1.38229 | 38048 ft | 466 kts | 9° |
| 2026-04-30 12:56 | 41.18856 | 1.40498 | 38053 ft | 466 kts | 9° |
| 2026-04-30 12:56 | 41.25117 | 1.42773 | 37903 ft | 466 kts | 9° |
| 2026-04-30 12:57 | 41.28236 | 1.43906 | 38104 ft | 466 kts | 9° |
| 2026-04-30 12:57 | 41.31379 | 1.45051 | 38069 ft | 466 kts | 9° |
| 2026-04-30 12:57 | 41.37608 | 1.47324 | 38054 ft | 465 kts | 9° |
| 2026-04-30 12:58 | 41.43825 | 1.49595 | 38057 ft | 465 kts | 9° |
| 2026-04-30 12:58 | 41.50074 | 1.51883 | 38059 ft | 464 kts | 9° |
| 2026-04-30 12:59 | 41.56300 | 1.54166 | 37899 ft | 464 kts | 9° |
| 2026-04-30 12:59 | 41.59405 | 1.55307 | 38012 ft | 464 kts | 8° |
| 2026-04-30 12:59 | 41.62515 | 1.56449 | 38045 ft | 465 kts | 9° |
| 2026-04-30 13:00 | 41.68732 | 1.58716 | 38060 ft | 464 kts | 7° |
| 2026-04-30 13:00 | 41.75040 | 1.60294 | 38062 ft | 457 kts | 360° |
| 2026-04-30 13:01 | 41.81319 | 1.60798 | 38065 ft | 451 kts | 353° |
| 2026-04-30 13:01 | 41.87536 | 1.60283 | 38071 ft | 445 kts | 347° |
| 2026-04-30 13:02 | 41.93676 | 1.59309 | 38064 ft | 445 kts | 346° |
| 2026-04-30 13:02 | 41.99773 | 1.58325 | 38072 ft | 445 kts | 346° |
| 2026-04-30 13:03 | 42.05951 | 1.57334 | 38075 ft | 445 kts | 346° |
| 2026-04-30 13:03 | 42.12070 | 1.56356 | 38085 ft | 445 kts | 346° |
| 2026-04-30 13:04 | 42.18224 | 1.55371 | 38101 ft | 445 kts | 347° |
| 2026-04-30 13:04 | 42.24359 | 1.54389 | 38118 ft | 446 kts | 347° |
| 2026-04-30 13:05 | 42.30508 | 1.53403 | 38139 ft | 446 kts | 347° |
| 2026-04-30 13:06 | 42.39822 | 1.51902 | 38150 ft | 448 kts | 347° |
| 2026-04-30 13:06 | 42.46009 | 1.50908 | 38140 ft | 448 kts | 347° |
| 2026-04-30 13:07 | 42.52278 | 1.49901 | 38124 ft | 448 kts | 347° |
| 2026-04-30 13:07 | 42.58501 | 1.48896 | 38108 ft | 449 kts | 347° |
| 2026-04-30 13:08 | 42.64687 | 1.47903 | 38099 ft | 449 kts | 347° |
| 2026-04-30 13:08 | 42.70892 | 1.46912 | 38093 ft | 450 kts | 347° |
| 2026-04-30 13:09 | 42.77108 | 1.45917 | 38111 ft | 449 kts | 347° |
| 2026-04-30 13:09 | 42.83316 | 1.44914 | 38088 ft | 451 kts | 347° |
| 2026-04-30 13:10 | 42.89554 | 1.43907 | 38083 ft | 451 kts | 347° |
| 2026-04-30 13:10 | 42.95766 | 1.42901 | 38065 ft | 451 kts | 348° |
| 2026-04-30 13:11 | 43.02022 | 1.41884 | 38059 ft | 451 kts | 348° |
| 2026-04-30 13:11 | 43.08219 | 1.40876 | 38059 ft | 452 kts | 348° |
| 2026-04-30 13:12 | 43.14500 | 1.39851 | 38054 ft | 453 kts | 348° |
| 2026-04-30 13:12 | 43.20748 | 1.38830 | 38052 ft | 454 kts | 348° |
| 2026-04-30 13:13 | 43.29456 | 1.37404 | 38047 ft | 454 kts | 348° |
| 2026-04-30 13:14 | 43.39116 | 1.35814 | 38041 ft | 456 kts | 348° |
| 2026-04-30 13:14 | 43.48517 | 1.34262 | 38037 ft | 455 kts | 348° |
| 2026-04-30 13:15 | 43.57802 | 1.32723 | 38044 ft | 456 kts | 349° |
| 2026-04-30 13:16 | 43.64175 | 1.31663 | 38051 ft | 457 kts | 349° |
| 2026-04-30 13:16 | 43.70571 | 1.30443 | 38046 ft | 456 kts | 346° |
| 2026-04-30 13:17 | 43.79943 | 1.28210 | 38035 ft | 456 kts | 346° |
| 2026-04-30 13:18 | 43.89328 | 1.25946 | 38032 ft | 457 kts | 346° |
| 2026-04-30 13:18 | 43.98690 | 1.23691 | 38026 ft | 457 kts | 346° |
| 2026-04-30 13:19 | 44.04990 | 1.22168 | 38040 ft | 458 kts | 347° |
| 2026-04-30 13:19 | 44.11286 | 1.20646 | 38041 ft | 458 kts | 347° |
| 2026-04-30 13:20 | 44.17621 | 1.19111 | 38045 ft | 459 kts | 347° |
| 2026-04-30 13:20 | 44.23986 | 1.17564 | 38049 ft | 460 kts | 347° |
| 2026-04-30 13:21 | 44.30331 | 1.16017 | 38046 ft | 460 kts | 347° |
| 2026-04-30 13:22 | 44.38963 | 1.13908 | 38053 ft | 461 kts | 347° |
| 2026-04-30 13:22 | 44.48474 | 1.11577 | 38056 ft | 461 kts | 347° |
| 2026-04-30 13:23 | 44.57427 | 1.09378 | 38060 ft | 462 kts | 347° |
| 2026-04-30 13:24 | 44.70080 | 1.06255 | 38051 ft | 462 kts | 347° |
| 2026-04-30 13:25 | 44.82904 | 1.03076 | 38063 ft | 462 kts | 348° |
| 2026-04-30 13:26 | 44.98920 | 0.99086 | 38062 ft | 463 kts | 348° |
| 2026-04-30 13:28 | 45.14843 | 0.95098 | 38084 ft | 462 kts | 348° |
| 2026-04-30 13:28 | 45.24391 | 0.92696 | 38080 ft | 463 kts | 348° |
| 2026-04-30 13:29 | 45.36197 | 0.89710 | 38074 ft | 463 kts | 348° |
| 2026-04-30 13:31 | 45.52139 | 0.85658 | 38074 ft | 464 kts | 349° |
| 2026-04-30 13:32 | 45.67188 | 0.81806 | 38085 ft | 463 kts | 349° |
| 2026-04-30 13:33 | 45.79972 | 0.78966 | 38086 ft | 465 kts | 355° |
| 2026-04-30 13:34 | 45.89672 | 0.78666 | 38089 ft | 465 kts | 359° |
| 2026-04-30 13:35 | 46.02716 | 0.78585 | 38092 ft | 464 kts | 360° |
| 2026-04-30 13:36 | 46.15759 | 0.78472 | 38092 ft | 463 kts | 360° |
| 2026-04-30 13:36 | 46.25394 | 0.78386 | 38090 ft | 463 kts | 360° |
| 2026-04-30 13:37 | 46.35033 | 0.78294 | 38096 ft | 463 kts | 360° |
| 2026-04-30 13:38 | 46.43895 | 0.78211 | 38092 ft | 463 kts | 360° |
| 2026-04-30 13:39 | 46.56786 | 0.79163 | 38089 ft | 462 kts | 9° |
| 2026-04-30 13:39 | 46.63067 | 0.80971 | 37920 ft | 463 kts | 13° |
| 2026-04-30 13:40 | 46.66190 | 0.81965 | 37570 ft | 460 kts | 13° |
| 2026-04-30 13:40 | 46.68401 | 0.82672 | 37310 ft | 457 kts | 13° |
| 2026-04-30 13:40 | 46.71538 | 0.83674 | 36947 ft | 453 kts | 13° |
| 2026-04-30 13:40 | 46.74658 | 0.84664 | 36604 ft | 452 kts | 14° |
| 2026-04-30 13:41 | 46.77751 | 0.85649 | 36293 ft | 452 kts | 14° |
| 2026-04-30 13:41 | 46.80829 | 0.86629 | 35980 ft | 452 kts | 14° |
| 2026-04-30 13:41 | 46.83876 | 0.87596 | 35507 ft | 453 kts | 14° |
| 2026-04-30 13:41 | 46.86940 | 0.88568 | 34988 ft | 454 kts | 14° |
| 2026-04-30 13:42 | 46.90016 | 0.89545 | 34435 ft | 455 kts | 14° |
| 2026-04-30 13:42 | 46.93134 | 0.90539 | 33796 ft | 457 kts | 14° |
| 2026-04-30 13:42 | 46.99341 | 0.92525 | 32527 ft | 459 kts | 14° |
| 2026-04-30 13:43 | 47.02460 | 0.93525 | 31890 ft | 460 kts | 14° |
| 2026-04-30 13:43 | 47.05588 | 0.94527 | 31255 ft | 461 kts | 14° |
| 2026-04-30 13:43 | 47.08689 | 0.95519 | 30628 ft | 462 kts | 14° |
| 2026-04-30 13:43 | 47.11736 | 0.96491 | 29992 ft | 463 kts | 14° |
| 2026-04-30 13:44 | 47.14872 | 0.97493 | 29342 ft | 465 kts | 14° |
| 2026-04-30 13:44 | 47.18024 | 0.98498 | 28687 ft | 466 kts | 13° |
| 2026-04-30 13:44 | 47.21193 | 0.99509 | 28035 ft | 466 kts | 14° |
| 2026-04-30 13:44 | 47.24351 | 1.00517 | 27385 ft | 461 kts | 14° |
| 2026-04-30 13:45 | 47.30521 | 1.02494 | 26108 ft | 451 kts | 14° |
| 2026-04-30 13:45 | 47.33611 | 1.03485 | 25461 ft | 447 kts | 14° |
| 2026-04-30 13:45 | 47.36615 | 1.04450 | 24836 ft | 444 kts | 14° |
| 2026-04-30 13:46 | 47.39629 | 1.05420 | 24204 ft | 439 kts | 14° |
| 2026-04-30 13:46 | 47.42256 | 1.06336 | 23979 ft | 428 kts | 17° |
| 2026-04-30 13:46 | 47.42598 | 1.06472 | 23958 ft | 426 kts | 17° |
| 2026-04-30 13:46 | 47.45524 | 1.07807 | 23919 ft | 407 kts | 20° |
| 2026-04-30 13:47 | 47.48050 | 1.09086 | 23765 ft | 396 kts | 22° |
| 2026-04-30 13:47 | 47.50715 | 1.10461 | 23202 ft | 394 kts | 22° |
| 2026-04-30 13:47 | 47.53319 | 1.11799 | 22688 ft | 392 kts | 22° |
| 2026-04-30 13:47 | 47.55912 | 1.13120 | 22193 ft | 389 kts | 22° |
| 2026-04-30 13:48 | 47.58511 | 1.14441 | 21715 ft | 386 kts | 22° |
| 2026-04-30 13:48 | 47.61038 | 1.15724 | 21249 ft | 383 kts | 22° |
| 2026-04-30 13:48 | 47.63522 | 1.16987 | 20792 ft | 380 kts | 22° |
| 2026-04-30 13:48 | 47.66009 | 1.18255 | 20334 ft | 377 kts | 22° |
| 2026-04-30 13:49 | 47.68476 | 1.19512 | 19880 ft | 374 kts | 22° |
| 2026-04-30 13:49 | 47.69518 | 1.20044 | 19684 ft | 373 kts | 22° |
| 2026-04-30 13:49 | 47.71965 | 1.21292 | 19226 ft | 370 kts | 22° |
| 2026-04-30 13:49 | 47.74264 | 1.22464 | 18800 ft | 368 kts | 23° |
| 2026-04-30 13:50 | 47.76720 | 1.23720 | 18342 ft | 365 kts | 23° |
| 2026-04-30 13:50 | 47.81556 | 1.26196 | 17444 ft | 360 kts | 23° |
| 2026-04-30 13:50 | 47.83908 | 1.27404 | 17006 ft | 357 kts | 23° |
| 2026-04-30 13:51 | 47.86235 | 1.28600 | 16570 ft | 355 kts | 22° |
| 2026-04-30 13:51 | 47.88567 | 1.29798 | 16132 ft | 353 kts | 22° |
| 2026-04-30 13:51 | 47.90905 | 1.30999 | 15689 ft | 350 kts | 22° |
| 2026-04-30 13:51 | 47.93180 | 1.32168 | 15257 ft | 348 kts | 22° |
| 2026-04-30 13:52 | 47.95493 | 1.33358 | 14815 ft | 346 kts | 22° |
| 2026-04-30 13:52 | 47.97759 | 1.34524 | 14386 ft | 344 kts | 22° |
| 2026-04-30 13:52 | 48.00015 | 1.35689 | 13955 ft | 342 kts | 22° |
| 2026-04-30 13:52 | 48.02276 | 1.36858 | 13524 ft | 340 kts | 22° |
| 2026-04-30 13:53 | 48.04516 | 1.38058 | 13158 ft | 334 kts | 25° |
| 2026-04-30 13:53 | 48.06553 | 1.39503 | 13041 ft | 319 kts | 32° |
| 2026-04-30 13:53 | 48.08444 | 1.41241 | 12735 ft | 312 kts | 37° |
| 2026-04-30 13:53 | 48.10140 | 1.42948 | 12452 ft | 306 kts | 37° |
| 2026-04-30 13:54 | 48.11938 | 1.44782 | 12209 ft | 298 kts | 37° |
| 2026-04-30 13:54 | 48.13640 | 1.46513 | 12034 ft | 289 kts | 37° |
| 2026-04-30 13:54 | 48.15267 | 1.48161 | 11989 ft | 283 kts | 37° |
| 2026-04-30 13:54 | 48.16895 | 1.49812 | 11623 ft | 284 kts | 37° |
| 2026-04-30 13:55 | 48.18527 | 1.51469 | 11266 ft | 284 kts | 37° |
| 2026-04-30 13:55 | 48.20163 | 1.53128 | 10919 ft | 283 kts | 37° |
| 2026-04-30 13:55 | 48.21804 | 1.54792 | 10575 ft | 282 kts | 37° |
| 2026-04-30 13:55 | 48.22060 | 1.55052 | 10522 ft | 282 kts | 37° |
| 2026-04-30 13:56 | 48.23481 | 1.56492 | 10229 ft | 281 kts | 37° |
| 2026-04-30 13:56 | 48.25124 | 1.58161 | 10096 ft | 280 kts | 37° |
| 2026-04-30 13:56 | 48.26716 | 1.59777 | 10095 ft | 277 kts | 37° |
| 2026-04-30 13:56 | 48.28324 | 1.61412 | 10096 ft | 277 kts | 37° |
| 2026-04-30 13:57 | 48.29471 | 1.62580 | 10096 ft | 277 kts | 37° |
| 2026-04-30 13:57 | 48.31074 | 1.64213 | 10099 ft | 277 kts | 37° |
| 2026-04-30 13:57 | 48.32666 | 1.65835 | 10101 ft | 276 kts | 37° |
| 2026-04-30 13:57 | 48.34283 | 1.67485 | 10099 ft | 276 kts | 37° |
| 2026-04-30 13:58 | 48.35905 | 1.69141 | 10101 ft | 276 kts | 37° |
| 2026-04-30 13:58 | 48.39086 | 1.72392 | 9556 ft | 273 kts | 37° |
| 2026-04-30 13:58 | 48.40650 | 1.74012 | 9177 ft | 273 kts | 38° |
| 2026-04-30 13:59 | 48.42207 | 1.75645 | 8825 ft | 271 kts | 38° |
| 2026-04-30 13:59 | 48.43756 | 1.77272 | 8473 ft | 270 kts | 38° |
| 2026-04-30 13:59 | 48.45291 | 1.78883 | 8120 ft | 269 kts | 38° |
| 2026-04-30 13:59 | 48.46830 | 1.80498 | 7768 ft | 268 kts | 38° |
| 2026-04-30 14:00 | 48.48185 | 1.81921 | 7457 ft | 266 kts | 38° |
| 2026-04-30 14:00 | 48.50051 | 1.83880 | 7040 ft | 264 kts | 37° |
| 2026-04-30 14:00 | 48.51599 | 1.85509 | 6687 ft | 263 kts | 37° |
| 2026-04-30 14:01 | 48.53096 | 1.87084 | 6338 ft | 262 kts | 37° |
| 2026-04-30 14:01 | 48.54596 | 1.88661 | 5927 ft | 259 kts | 37° |
| 2026-04-30 14:01 | 48.56072 | 1.90214 | 5415 ft | 256 kts | 38° |
| 2026-04-30 14:01 | 48.57421 | 1.91695 | 4990 ft | 250 kts | 45° |
| 2026-04-30 14:02 | 48.58406 | 1.93364 | 4477 ft | 247 kts | 59° |
| 2026-04-30 14:02 | 48.59228 | 1.95592 | 4066 ft | 237 kts | 65° |
| 2026-04-30 14:02 | 48.59956 | 1.97775 | 3989 ft | 218 kts | 66° |
| 2026-04-30 14:02 | 48.60647 | 1.99743 | 3973 ft | 203 kts | 63° |
| 2026-04-30 14:03 | 48.61343 | 2.01553 | 3982 ft | 198 kts | 63° |
| 2026-04-30 14:03 | 48.62027 | 2.03370 | 3989 ft | 198 kts | 64° |
| 2026-04-30 14:03 | 48.62684 | 2.05169 | 3968 ft | 188 kts | 64° |
| 2026-04-30 14:03 | 48.63294 | 2.06880 | 3809 ft | 182 kts | 65° |
| 2026-04-30 14:04 | 48.63894 | 2.08589 | 3569 ft | 180 kts | 65° |
| 2026-04-30 14:04 | 48.64468 | 2.10235 | 3338 ft | 178 kts | 65° |
| 2026-04-30 14:04 | 48.65043 | 2.11888 | 3107 ft | 176 kts | 65° |
| 2026-04-30 14:04 | 48.65610 | 2.13512 | 2881 ft | 174 kts | 65° |
| 2026-04-30 14:05 | 48.66176 | 2.15132 | 2653 ft | 171 kts | 66° |
| 2026-04-30 14:05 | 48.66734 | 2.16726 | 2437 ft | 170 kts | 65° |
| 2026-04-30 14:05 | 48.67277 | 2.18272 | 2288 ft | 163 kts | 66° |
| 2026-04-30 14:05 | 48.67799 | 2.19755 | 2060 ft | 152 kts | 65° |
| 2026-04-30 14:06 | 48.68278 | 2.21112 | 1839 ft | 140 kts | 67° |
| 2026-04-30 14:06 | 48.69138 | 2.23561 | 1481 ft | 127 kts | 66° |
| 2026-04-30 14:07 | 48.69975 | 2.25945 | 1161 ft | 127 kts | 67° |
| 2026-04-30 14:07 | 48.70399 | 2.27148 | 1000 ft | 127 kts | 67° |
| 2026-04-30 14:07 | 48.70817 | 2.28335 | 843 ft | 126 kts | 64° |
| 2026-04-30 14:08 | 48.71662 | 2.30725 | 497 ft | 125 kts | 64° |
| 2026-04-30 14:08 | 48.72068 | 2.31892 | 333 ft | 124 kts | 64° |
| 2026-04-30 14:08 | 48.72677 | 2.33613 | 279 ft | 38 kts | 62° |
| 2026-04-30 14:09 | 48.72764 | 2.33944 | 283 ft | 31 kts | 83° |
| 2026-04-30 14:09 | 48.72792 | 2.34252 | 283 ft | 27 kts | 81° |
| 2026-04-30 14:09 | 48.72845 | 2.34800 | 283 ft | 24 kts | 82° |
| 2026-04-30 14:10 | 48.72862 | 2.35051 | 283 ft | 23 kts | 96° |
| 2026-04-30 14:10 | 48.72770 | 2.35228 | 283 ft | 21 kts | 158° |
| 2026-04-30 14:10 | 48.72625 | 2.35288 | 283 ft | 21 kts | 164° |
| 2026-04-30 14:10 | 48.72482 | 2.35348 | 282 ft | 21 kts | 163° |
| 2026-04-30 14:11 | 48.72358 | 2.35426 | 281 ft | 18 kts | 141° |
| 2026-04-30 14:11 | 48.72306 | 2.35602 | 279 ft | 18 kts | 81° |
| 2026-04-30 14:11 | 48.72341 | 2.35791 | 279 ft | 18 kts | 75° |
| 2026-04-30 14:11 | 48.72372 | 2.35969 | 283 ft | 16 kts | 76° |
| 2026-04-30 14:12 | 48.72403 | 2.36133 | 283 ft | 16 kts | 72° |
| 2026-04-30 14:12 | 48.72434 | 2.36297 | 283 ft | 16 kts | 75° |
| 2026-04-30 14:12 | 48.72454 | 2.36416 | 283 ft | 2 kts | 92° |
| 2026-04-30 14:12 | 48.72444 | 2.36427 | 283 ft | 3 kts | 174° |
| 2026-04-30 14:13 | 48.72393 | 2.36409 | 283 ft | 5 kts | 198° |
| 2026-04-30 14:13 | 48.72369 | 2.36396 | 283 ft | 1 kts | 198° |
| 2026-04-30 14:13 | 48.72363 | 2.36393 | 283 ft | 1 kts | 198° |
| 2026-04-30 14:13 | 48.72362 | 2.36393 | 283 ft | 0 kts | 197° |